To NAV CANADA Home Page Login to a new session Search on AWWS site Disclaimer Vers la page française équivalente Tips FAQ What's new on the site To the Forecasts and Observations / NOTAM section To "File a Flight Plan" website Publications and other links Update of the User's profile FIC Telephone Numbers My Weather Data Folder Route Weather Data Regional Weather Data Local Weather Data To the Forecasts and Observations / NOTAM section
Request Generated 11/13/2018 at 18:04:32 UTC . Weather information available at that time is displayed.

METAR/TAF

POWELL RIVER/BC    (show WxCam)

METAR CYPW 131800Z 12006KT 20SM BKN100 BKN120 BKN250 08/03 A3031 RMK AC5AC2CS1 CS TR VIRGA DIST W-NW SLP270=
METAR CYPW 131700Z 11006KT 080V160 25SM FEW130 BKN150 BKN180 BKN250 07/03 A3032 RMK AC1AC4AC2CS1 CS TR SLP272=
METAR CYPW 131600Z 11007KT 20SM FEW170 BKN200 BKN260 06/03 A3031 RMK AS2CC3CC2 SLP269=

CYPW - No TAF is issued for this station

Your time UTC time
Weather data provided by Environment Canada and NAV CANADA